sensor_id;sensor_type;location;lat;lon;timestamp;temperature;humidity
70550;DHT22;58101;48.658;2.328;2023-07-31T00:00:47;19.00;96.00
70550;DHT22;58101;48.658;2.328;2023-07-31T00:03:13;19.00;96.10
70550;DHT22;58101;48.658;2.328;2023-07-31T00:05:38;19.00;96.30
70550;DHT22;58101;48.658;2.328;2023-07-31T00:08:04;18.90;96.80
70550;DHT22;58101;48.658;2.328;2023-07-31T00:10:29;18.90;97.10
70550;DHT22;58101;48.658;2.328;2023-07-31T00:12:55;19.00;97.20
70550;DHT22;58101;48.658;2.328;2023-07-31T00:15:20;18.90;97.50
70550;DHT22;58101;48.658;2.328;2023-07-31T00:17:46;18.90;97.80
70550;DHT22;58101;48.658;2.328;2023-07-31T00:20:13;18.90;97.70
70550;DHT22;58101;48.658;2.328;2023-07-31T00:22:38;19.00;97.70
70550;DHT22;58101;48.658;2.328;2023-07-31T00:25:04;19.00;97.80
70550;DHT22;58101;48.658;2.328;2023-07-31T00:27:32;19.00;97.50
70550;DHT22;58101;48.658;2.328;2023-07-31T00:29:57;19.00;97.80
70550;DHT22;58101;48.658;2.328;2023-07-31T00:32:23;19.00;98.10
70550;DHT22;58101;48.658;2.328;2023-07-31T00:34:48;19.00;97.50
70550;DHT22;58101;48.658;2.328;2023-07-31T00:37:14;19.00;97.60
70550;DHT22;58101;48.658;2.328;2023-07-31T00:39:40;19.00;97.70
70550;DHT22;58101;48.658;2.328;2023-07-31T00:42:06;19.00;97.40
70550;DHT22;58101;48.658;2.328;2023-07-31T00:44:32;19.00;97.50
70550;DHT22;58101;48.658;2.328;2023-07-31T00:46:58;18.90;97.50
70550;DHT22;58101;48.658;2.328;2023-07-31T00:49:24;18.90;97.40
70550;DHT22;58101;48.658;2.328;2023-07-31T00:51:51;19.00;97.50
70550;DHT22;58101;48.658;2.328;2023-07-31T00:54:17;18.90;97.80
70550;DHT22;58101;48.658;2.328;2023-07-31T00:56:45;18.90;98.10
70550;DHT22;58101;48.658;2.328;2023-07-31T00:59:10;18.90;98.20
70550;DHT22;58101;48.658;2.328;2023-07-31T01:01:36;18.90;97.90
70550;DHT22;58101;48.658;2.328;2023-07-31T01:04:02;18.90;97.90
70550;DHT22;58101;48.658;2.328;2023-07-31T01:06:39;18.90;98.50
70550;DHT22;58101;48.658;2.328;2023-07-31T01:09:15;18.90;97.80
70550;DHT22;58101;48.658;2.328;2023-07-31T01:11:51;18.80;98.20
70550;DHT22;58101;48.658;2.328;2023-07-31T01:14:17;18.80;98.80
70550;DHT22;58101;48.658;2.328;2023-07-31T01:16:43;18.80;98.90
70550;DHT22;58101;48.658;2.328;2023-07-31T01:19:09;18.80;98.70
70550;DHT22;58101;48.658;2.328;2023-07-31T01:24:20;18.70;98.80
70550;DHT22;58101;48.658;2.328;2023-07-31T01:27:14;18.70;98.50
70550;DHT22;58101;48.658;2.328;2023-07-31T01:29:49;18.70;98.90
70550;DHT22;58101;48.658;2.328;2023-07-31T01:32:18;18.70;98.90
70550;DHT22;58101;48.658;2.328;2023-07-31T01:34:44;18.70;99.00
70550;DHT22;58101;48.658;2.328;2023-07-31T01:37:09;18.70;98.70
70550;DHT22;58101;48.658;2.328;2023-07-31T01:39:35;18.60;98.90
70550;DHT22;58101;48.658;2.328;2023-07-31T01:42:01;18.70;98.60
70550;DHT22;58101;48.658;2.328;2023-07-31T01:44:27;18.70;99.30
70550;DHT22;58101;48.658;2.328;2023-07-31T01:46:52;18.70;98.60
70550;DHT22;58101;48.658;2.328;2023-07-31T01:49:18;18.70;99.10
70550;DHT22;58101;48.658;2.328;2023-07-31T01:51:44;18.70;99.00
70550;DHT22;58101;48.658;2.328;2023-07-31T01:54:09;18.70;99.30
70550;DHT22;58101;48.658;2.328;2023-07-31T01:56:35;18.70;99.30
70550;DHT22;58101;48.658;2.328;2023-07-31T01:59:00;18.70;99.10
70550;DHT22;58101;48.658;2.328;2023-07-31T02:01:26;18.70;99.00
70550;DHT22;58101;48.658;2.328;2023-07-31T02:03:52;18.60;99.50
70550;DHT22;58101;48.658;2.328;2023-07-31T02:06:17;18.60;99.50
70550;DHT22;58101;48.658;2.328;2023-07-31T02:08:43;18.60;99.30
70550;DHT22;58101;48.658;2.328;2023-07-31T02:11:09;18.60;99.70
70550;DHT22;58101;48.658;2.328;2023-07-31T02:13:34;18.60;99.90
70550;DHT22;58101;48.658;2.328;2023-07-31T02:16:00;18.60;99.90
70550;DHT22;58101;48.658;2.328;2023-07-31T02:18:26;18.60;99.90
70550;DHT22;58101;48.658;2.328;2023-07-31T02:20:52;18.60;99.90
70550;DHT22;58101;48.658;2.328;2023-07-31T02:23:18;18.60;99.90
70550;DHT22;58101;48.658;2.328;2023-07-31T02:25:44;18.60;99.90
70550;DHT22;58101;48.658;2.328;2023-07-31T02:28:10;18.60;99.90
70550;DHT22;58101;48.658;2.328;2023-07-31T02:30:36;18.60;99.90
70550;DHT22;58101;48.658;2.328;2023-07-31T02:33:01;18.50;99.90
70550;DHT22;58101;48.658;2.328;2023-07-31T02:35:27;18.40;99.90
70550;DHT22;58101;48.658;2.328;2023-07-31T02:37:52;18.50;99.80
70550;DHT22;58101;48.658;2.328;2023-07-31T02:40:18;18.50;99.90
70550;DHT22;58101;48.658;2.328;2023-07-31T02:42:44;18.50;99.90
70550;DHT22;58101;48.658;2.328;2023-07-31T02:45:09;18.50;99.90
70550;DHT22;58101;48.658;2.328;2023-07-31T02:47:35;18.40;99.90
70550;DHT22;58101;48.658;2.328;2023-07-31T02:50:02;18.40;99.90
70550;DHT22;58101;48.658;2.328;2023-07-31T02:52:28;18.40;99.90
70550;DHT22;58101;48.658;2.328;2023-07-31T02:54:53;18.40;99.90
70550;DHT22;58101;48.658;2.328;2023-07-31T02:57:19;18.30;99.90
70550;DHT22;58101;48.658;2.328;2023-07-31T02:59:45;18.30;99.90
70550;DHT22;58101;48.658;2.328;2023-07-31T03:02:10;18.30;99.90
70550;DHT22;58101;48.658;2.328;2023-07-31T03:04:37;18.20;99.90
70550;DHT22;58101;48.658;2.328;2023-07-31T03:07:06;18.20;99.90
70550;DHT22;58101;48.658;2.328;2023-07-31T03:09:31;18.10;99.90
70550;DHT22;58101;48.658;2.328;2023-07-31T03:11:57;18.10;99.90
70550;DHT22;58101;48.658;2.328;2023-07-31T03:14:23;18.00;99.90
70550;DHT22;58101;48.658;2.328;2023-07-31T03:16:49;18.00;99.90
70550;DHT22;58101;48.658;2.328;2023-07-31T03:19:14;18.00;99.90
70550;DHT22;58101;48.658;2.328;2023-07-31T03:21:40;18.00;99.90
70550;DHT22;58101;48.658;2.328;2023-07-31T03:24:06;18.00;99.90
70550;DHT22;58101;48.658;2.328;2023-07-31T03:26:32;18.00;99.90
70550;DHT22;58101;48.658;2.328;2023-07-31T03:28:58;18.00;99.90
70550;DHT22;58101;48.658;2.328;2023-07-31T03:31:23;18.00;99.90
70550;DHT22;58101;48.658;2.328;2023-07-31T03:33:49;18.00;99.90
70550;DHT22;58101;48.658;2.328;2023-07-31T03:36:15;18.00;99.90
70550;DHT22;58101;48.658;2.328;2023-07-31T03:38:40;18.00;99.90
70550;DHT22;58101;48.658;2.328;2023-07-31T03:41:06;18.00;99.90
70550;DHT22;58101;48.658;2.328;2023-07-31T03:43:32;17.90;99.90
70550;DHT22;58101;48.658;2.328;2023-07-31T03:46:00;17.90;99.90
70550;DHT22;58101;48.658;2.328;2023-07-31T03:48:25;17.90;99.90
70550;DHT22;58101;48.658;2.328;2023-07-31T03:50:51;17.90;99.90
70550;DHT22;58101;48.658;2.328;2023-07-31T03:53:16;17.90;99.90
70550;DHT22;58101;48.658;2.328;2023-07-31T03:55:42;18.00;99.90
70550;DHT22;58101;48.658;2.328;2023-07-31T03:58:08;17.80;99.90
70550;DHT22;58101;48.658;2.328;2023-07-31T04:00:33;17.70;99.90
70550;DHT22;58101;48.658;2.328;2023-07-31T04:02:59;17.80;99.90
70550;DHT22;58101;48.658;2.328;2023-07-31T04:05:25;17.80;99.90
70550;DHT22;58101;48.658;2.328;2023-07-31T04:07:53;17.80;99.90
70550;DHT22;58101;48.658;2.328;2023-07-31T04:10:19;17.70;99.90
70550;DHT22;58101;48.658;2.328;2023-07-31T04:12:44;17.80;99.90
70550;DHT22;58101;48.658;2.328;2023-07-31T04:15:10;17.80;99.90
70550;DHT22;58101;48.658;2.328;2023-07-31T04:17:36;17.80;99.90
70550;DHT22;58101;48.658;2.328;2023-07-31T04:20:01;17.70;99.90
70550;DHT22;58101;48.658;2.328;2023-07-31T04:22:27;17.80;99.90
70550;DHT22;58101;48.658;2.328;2023-07-31T04:24:53;17.70;99.90
70550;DHT22;58101;48.658;2.328;2023-07-31T04:27:19;17.70;99.90
70550;DHT22;58101;48.658;2.328;2023-07-31T04:29:44;17.70;99.90
70550;DHT22;58101;48.658;2.328;2023-07-31T04:32:12;17.70;99.90
70550;DHT22;58101;48.658;2.328;2023-07-31T04:34:37;17.70;99.90
70550;DHT22;58101;48.658;2.328;2023-07-31T04:37:03;17.70;99.90
70550;DHT22;58101;48.658;2.328;2023-07-31T04:39:29;17.70;99.90
70550;DHT22;58101;48.658;2.328;2023-07-31T04:41:54;17.60;99.90
70550;DHT22;58101;48.658;2.328;2023-07-31T04:44:20;17.70;99.90
70550;DHT22;58101;48.658;2.328;2023-07-31T04:46:45;17.60;99.90
70550;DHT22;58101;48.658;2.328;2023-07-31T04:49:11;17.70;99.90
70550;DHT22;58101;48.658;2.328;2023-07-31T04:51:37;17.70;99.90
70550;DHT22;58101;48.658;2.328;2023-07-31T04:54:03;17.80;99.90
70550;DHT22;58101;48.658;2.328;2023-07-31T04:56:28;17.70;99.90
70550;DHT22;58101;48.658;2.328;2023-07-31T04:58:54;17.60;99.90
70550;DHT22;58101;48.658;2.328;2023-07-31T05:01:20;17.70;99.90
70550;DHT22;58101;48.658;2.328;2023-07-31T05:03:46;17.70;99.90
70550;DHT22;58101;48.658;2.328;2023-07-31T05:06:12;17.60;99.90
70550;DHT22;58101;48.658;2.328;2023-07-31T05:08:38;17.60;99.90
70550;DHT22;58101;48.658;2.328;2023-07-31T05:11:04;17.60;99.90
70550;DHT22;58101;48.658;2.328;2023-07-31T05:13:30;17.60;99.90
70550;DHT22;58101;48.658;2.328;2023-07-31T05:15:56;17.60;99.90
70550;DHT22;58101;48.658;2.328;2023-07-31T05:18:21;17.50;99.90
70550;DHT22;58101;48.658;2.328;2023-07-31T05:20:47;17.50;99.90
70550;DHT22;58101;48.658;2.328;2023-07-31T05:23:12;17.50;99.90
70550;DHT22;58101;48.658;2.328;2023-07-31T05:25:38;17.40;99.90
70550;DHT22;58101;48.658;2.328;2023-07-31T05:28:04;17.40;99.90
70550;DHT22;58101;48.658;2.328;2023-07-31T05:30:32;17.40;99.90
70550;DHT22;58101;48.658;2.328;2023-07-31T05:32:58;17.30;99.90
70550;DHT22;58101;48.658;2.328;2023-07-31T05:35:23;17.20;99.90
70550;DHT22;58101;48.658;2.328;2023-07-31T05:37:49;17.30;99.90
70550;DHT22;58101;48.658;2.328;2023-07-31T05:40:15;17.30;99.90
70550;DHT22;58101;48.658;2.328;2023-07-31T05:42:40;17.20;99.90
70550;DHT22;58101;48.658;2.328;2023-07-31T05:45:07;17.20;99.90
70550;DHT22;58101;48.658;2.328;2023-07-31T05:47:33;17.20;99.90
70550;DHT22;58101;48.658;2.328;2023-07-31T05:49:58;17.20;99.90
70550;DHT22;58101;48.658;2.328;2023-07-31T05:52:24;17.30;99.90
70550;DHT22;58101;48.658;2.328;2023-07-31T05:54:50;17.20;99.90
70550;DHT22;58101;48.658;2.328;2023-07-31T05:57:15;17.30;99.90
70550;DHT22;58101;48.658;2.328;2023-07-31T05:59:41;17.30;99.90
70550;DHT22;58101;48.658;2.328;2023-07-31T06:02:07;17.30;99.90
70550;DHT22;58101;48.658;2.328;2023-07-31T06:04:32;17.30;99.90
70550;DHT22;58101;48.658;2.328;2023-07-31T06:06:58;17.30;99.90
70550;DHT22;58101;48.658;2.328;2023-07-31T06:09:24;17.40;99.90
70550;DHT22;58101;48.658;2.328;2023-07-31T06:11:51;17.40;99.90
70550;DHT22;58101;48.658;2.328;2023-07-31T06:14:17;17.20;99.90
70550;DHT22;58101;48.658;2.328;2023-07-31T06:16:43;17.40;99.90
70550;DHT22;58101;48.658;2.328;2023-07-31T06:19:09;17.50;99.90
70550;DHT22;58101;48.658;2.328;2023-07-31T06:21:35;17.60;99.90
70550;DHT22;58101;48.658;2.328;2023-07-31T06:24:03;17.60;99.90
70550;DHT22;58101;48.658;2.328;2023-07-31T06:26:29;17.70;99.90
70550;DHT22;58101;48.658;2.328;2023-07-31T06:28:54;17.70;99.90
70550;DHT22;58101;48.658;2.328;2023-07-31T06:31:20;17.70;99.90
70550;DHT22;58101;48.658;2.328;2023-07-31T06:33:49;17.70;99.90
70550;DHT22;58101;48.658;2.328;2023-07-31T06:36:14;17.70;99.90
70550;DHT22;58101;48.658;2.328;2023-07-31T06:38:40;17.70;99.90
70550;DHT22;58101;48.658;2.328;2023-07-31T06:41:05;17.70;99.90
70550;DHT22;58101;48.658;2.328;2023-07-31T06:43:31;17.70;99.90
70550;DHT22;58101;48.658;2.328;2023-07-31T06:45:57;17.70;99.90
70550;DHT22;58101;48.658;2.328;2023-07-31T06:48:22;17.80;99.90
70550;DHT22;58101;48.658;2.328;2023-07-31T06:50:48;17.70;99.90
70550;DHT22;58101;48.658;2.328;2023-07-31T06:53:13;17.70;99.90
70550;DHT22;58101;48.658;2.328;2023-07-31T06:55:42;17.70;99.90
70550;DHT22;58101;48.658;2.328;2023-07-31T06:58:07;17.80;99.90
70550;DHT22;58101;48.658;2.328;2023-07-31T07:00:33;17.80;99.90
70550;DHT22;58101;48.658;2.328;2023-07-31T07:02:58;17.90;99.90
70550;DHT22;58101;48.658;2.328;2023-07-31T07:05:24;17.90;99.90
70550;DHT22;58101;48.658;2.328;2023-07-31T07:07:50;18.00;99.90
70550;DHT22;58101;48.658;2.328;2023-07-31T07:10:19;18.20;99.90
70550;DHT22;58101;48.658;2.328;2023-07-31T07:12:45;18.20;99.90
70550;DHT22;58101;48.658;2.328;2023-07-31T07:15:11;18.30;99.90
70550;DHT22;58101;48.658;2.328;2023-07-31T07:17:36;18.40;99.90
70550;DHT22;58101;48.658;2.328;2023-07-31T07:20:02;18.50;99.90
70550;DHT22;58101;48.658;2.328;2023-07-31T07:22:29;18.50;99.90
70550;DHT22;58101;48.658;2.328;2023-07-31T07:24:54;18.60;99.90
70550;DHT22;58101;48.658;2.328;2023-07-31T07:27:20;18.70;99.90
70550;DHT22;58101;48.658;2.328;2023-07-31T07:29:50;18.70;99.90
70550;DHT22;58101;48.658;2.328;2023-07-31T07:32:17;18.70;99.90
70550;DHT22;58101;48.658;2.328;2023-07-31T07:34:43;18.70;99.90
70550;DHT22;58101;48.658;2.328;2023-07-31T07:37:09;18.80;99.90
70550;DHT22;58101;48.658;2.328;2023-07-31T07:39:35;18.90;99.90
70550;DHT22;58101;48.658;2.328;2023-07-31T07:42:00;19.00;99.90
70550;DHT22;58101;48.658;2.328;2023-07-31T07:44:26;19.00;99.90
70550;DHT22;58101;48.658;2.328;2023-07-31T07:46:52;19.10;99.90
70550;DHT22;58101;48.658;2.328;2023-07-31T07:49:18;19.00;99.90
70550;DHT22;58101;48.658;2.328;2023-07-31T07:51:43;19.10;99.90
70550;DHT22;58101;48.658;2.328;2023-07-31T07:54:09;19.20;99.90
70550;DHT22;58101;48.658;2.328;2023-07-31T07:56:34;19.30;99.90
70550;DHT22;58101;48.658;2.328;2023-07-31T07:59:01;19.40;99.90
70550;DHT22;58101;48.658;2.328;2023-07-31T08:01:27;19.50;99.90
70550;DHT22;58101;48.658;2.328;2023-07-31T08:03:52;19.60;99.90
70550;DHT22;58101;48.658;2.328;2023-07-31T08:06:18;19.60;99.90
70550;DHT22;58101;48.658;2.328;2023-07-31T08:08:44;19.60;99.90
70550;DHT22;58101;48.658;2.328;2023-07-31T08:11:09;19.60;99.90
70550;DHT22;58101;48.658;2.328;2023-07-31T08:13:35;19.70;99.90
70550;DHT22;58101;48.658;2.328;2023-07-31T08:16:02;19.80;99.90
70550;DHT22;58101;48.658;2.328;2023-07-31T08:18:28;19.80;99.90
70550;DHT22;58101;48.658;2.328;2023-07-31T08:20:53;19.80;99.90
70550;DHT22;58101;48.658;2.328;2023-07-31T08:23:19;19.90;99.90
70550;DHT22;58101;48.658;2.328;2023-07-31T08:25:45;19.90;99.90
70550;DHT22;58101;48.658;2.328;2023-07-31T08:28:10;19.90;99.90
70550;DHT22;58101;48.658;2.328;2023-07-31T08:30:36;19.90;99.90
70550;DHT22;58101;48.658;2.328;2023-07-31T08:33:02;20.00;99.90
70550;DHT22;58101;48.658;2.328;2023-07-31T08:35:28;20.20;99.90
70550;DHT22;58101;48.658;2.328;2023-07-31T08:37:54;20.30;96.50
70550;DHT22;58101;48.658;2.328;2023-07-31T08:40:19;20.40;96.40
70550;DHT22;58101;48.658;2.328;2023-07-31T08:42:49;20.20;96.60
70550;DHT22;58101;48.658;2.328;2023-07-31T08:45:17;20.20;98.40
70550;DHT22;58101;48.658;2.328;2023-07-31T08:47:48;20.20;97.50
70550;DHT22;58101;48.658;2.328;2023-07-31T08:50:16;20.10;98.50
70550;DHT22;58101;48.658;2.328;2023-07-31T08:52:42;20.20;98.60
70550;DHT22;58101;48.658;2.328;2023-07-31T08:55:08;20.00;99.90
70550;DHT22;58101;48.658;2.328;2023-07-31T08:57:35;19.90;99.90
70550;DHT22;58101;48.658;2.328;2023-07-31T09:00:03;19.70;99.90
70550;DHT22;58101;48.658;2.328;2023-07-31T09:02:38;19.50;99.90
70550;DHT22;58101;48.658;2.328;2023-07-31T09:05:07;19.20;99.90
70550;DHT22;58101;48.658;2.328;2023-07-31T09:07:35;19.10;99.90
70550;DHT22;58101;48.658;2.328;2023-07-31T09:10:03;19.30;99.90
70550;DHT22;58101;48.658;2.328;2023-07-31T09:12:30;19.50;99.90
70550;DHT22;58101;48.658;2.328;2023-07-31T09:14:59;19.60;99.90
70550;DHT22;58101;48.658;2.328;2023-07-31T09:17:33;19.70;99.90
70550;DHT22;58101;48.658;2.328;2023-07-31T09:20:19;19.70;99.90
70550;DHT22;58101;48.658;2.328;2023-07-31T09:22:46;19.70;99.90
70550;DHT22;58101;48.658;2.328;2023-07-31T09:25:15;19.70;99.90
70550;DHT22;58101;48.658;2.328;2023-07-31T09:27:59;19.60;99.90
70550;DHT22;58101;48.658;2.328;2023-07-31T09:30:25;19.40;99.90
70550;DHT22;58101;48.658;2.328;2023-07-31T09:32:52;19.30;99.90
70550;DHT22;58101;48.658;2.328;2023-07-31T09:35:32;19.40;99.90
70550;DHT22;58101;48.658;2.328;2023-07-31T09:38:12;19.30;99.90
70550;DHT22;58101;48.658;2.328;2023-07-31T09:40:44;19.30;99.90
70550;DHT22;58101;48.658;2.328;2023-07-31T09:43:12;19.30;99.90
70550;DHT22;58101;48.658;2.328;2023-07-31T09:45:40;19.30;99.90
70550;DHT22;58101;48.658;2.328;2023-07-31T09:48:14;19.30;99.90
70550;DHT22;58101;48.658;2.328;2023-07-31T09:50:44;19.30;99.90
70550;DHT22;58101;48.658;2.328;2023-07-31T09:53:10;19.20;99.90
70550;DHT22;58101;48.658;2.328;2023-07-31T09:55:37;19.30;99.90
70550;DHT22;58101;48.658;2.328;2023-07-31T09:58:10;19.50;99.90
70550;DHT22;58101;48.658;2.328;2023-07-31T10:00:36;19.90;99.90
70550;DHT22;58101;48.658;2.328;2023-07-31T10:03:05;20.20;99.90
70550;DHT22;58101;48.658;2.328;2023-07-31T10:05:40;20.60;99.90
70550;DHT22;58101;48.658;2.328;2023-07-31T10:08:07;20.60;99.90
70550;DHT22;58101;48.658;2.328;2023-07-31T10:10:36;20.50;99.90
70550;DHT22;58101;48.658;2.328;2023-07-31T10:13:01;20.30;99.90
70550;DHT22;58101;48.658;2.328;2023-07-31T10:15:28;20.30;99.90
70550;DHT22;58101;48.658;2.328;2023-07-31T10:17:54;20.10;99.90
70550;DHT22;58101;48.658;2.328;2023-07-31T10:20:20;20.10;99.90
70550;DHT22;58101;48.658;2.328;2023-07-31T10:22:46;20.20;99.90
70550;DHT22;58101;48.658;2.328;2023-07-31T10:25:13;20.20;99.90
70550;DHT22;58101;48.658;2.328;2023-07-31T10:27:40;20.20;99.90
70550;DHT22;58101;48.658;2.328;2023-07-31T10:30:11;20.00;99.90
70550;DHT22;58101;48.658;2.328;2023-07-31T10:32:39;20.00;99.90
70550;DHT22;58101;48.658;2.328;2023-07-31T10:35:06;19.90;99.90
70550;DHT22;58101;48.658;2.328;2023-07-31T10:37:40;19.90;99.90
70550;DHT22;58101;48.658;2.328;2023-07-31T10:42:35;19.70;99.90
70550;DHT22;58101;48.658;2.328;2023-07-31T10:45:10;19.50;99.90
70550;DHT22;58101;48.658;2.328;2023-07-31T10:47:43;19.30;99.90
70550;DHT22;58101;48.658;2.328;2023-07-31T10:52:50;19.30;99.90
70550;DHT22;58101;48.658;2.328;2023-07-31T10:57:54;19.30;99.90
70550;DHT22;58101;48.658;2.328;2023-07-31T11:00:30;19.30;99.90
70550;DHT22;58101;48.658;2.328;2023-07-31T11:03:03;19.20;99.90
70550;DHT22;58101;48.658;2.328;2023-07-31T11:05:59;19.20;99.90
70550;DHT22;58101;48.658;2.328;2023-07-31T11:08:28;19.30;99.90
70550;DHT22;58101;48.658;2.328;2023-07-31T11:13:50;19.30;99.90
70550;DHT22;58101;48.658;2.328;2023-07-31T11:16:19;19.40;99.90
70550;DHT22;58101;48.658;2.328;2023-07-31T11:18:46;19.40;99.90
70550;DHT22;58101;48.658;2.328;2023-07-31T11:23:46;19.50;99.90
70550;DHT22;58101;48.658;2.328;2023-07-31T11:26:12;19.50;99.90
70550;DHT22;58101;48.658;2.328;2023-07-31T11:28:38;19.60;99.90
70550;DHT22;58101;48.658;2.328;2023-07-31T11:31:04;19.60;99.90
70550;DHT22;58101;48.658;2.328;2023-07-31T11:33:30;19.70;99.90
70550;DHT22;58101;48.658;2.328;2023-07-31T11:35:56;19.80;99.90
70550;DHT22;58101;48.658;2.328;2023-07-31T11:40:55;19.90;99.90
70550;DHT22;58101;48.658;2.328;2023-07-31T11:43:21;20.00;99.90
70550;DHT22;58101;48.658;2.328;2023-07-31T11:45:56;20.20;99.90
70550;DHT22;58101;48.658;2.328;2023-07-31T11:48:28;20.40;99.90
70550;DHT22;58101;48.658;2.328;2023-07-31T11:50:57;20.70;99.90
70550;DHT22;58101;48.658;2.328;2023-07-31T11:53:36;21.00;99.90
70550;DHT22;58101;48.658;2.328;2023-07-31T11:56:04;21.20;99.90
70550;DHT22;58101;48.658;2.328;2023-07-31T11:58:32;21.40;99.30
70550;DHT22;58101;48.658;2.328;2023-07-31T12:00:59;21.60;97.70
70550;DHT22;58101;48.658;2.328;2023-07-31T12:03:25;21.70;96.70
70550;DHT22;58101;48.658;2.328;2023-07-31T12:05:53;21.70;95.70
70550;DHT22;58101;48.658;2.328;2023-07-31T12:08:21;21.70;96.70
70550;DHT22;58101;48.658;2.328;2023-07-31T12:10:47;21.70;94.90
70550;DHT22;58101;48.658;2.328;2023-07-31T12:13:23;21.60;94.30
70550;DHT22;58101;48.658;2.328;2023-07-31T12:15:54;21.40;95.10
70550;DHT22;58101;48.658;2.328;2023-07-31T12:18:22;21.20;95.90
70550;DHT22;58101;48.658;2.328;2023-07-31T12:20:48;21.00;98.40
70550;DHT22;58101;48.658;2.328;2023-07-31T12:23:22;20.90;99.50
70550;DHT22;58101;48.658;2.328;2023-07-31T12:26:07;20.90;98.50
70550;DHT22;58101;48.658;2.328;2023-07-31T12:28:41;21.00;98.10
70550;DHT22;58101;48.658;2.328;2023-07-31T12:31:11;21.00;98.30
70550;DHT22;58101;48.658;2.328;2023-07-31T12:33:38;21.10;97.60
70550;DHT22;58101;48.658;2.328;2023-07-31T12:36:16;21.20;95.80
70550;DHT22;58101;48.658;2.328;2023-07-31T12:38:42;21.10;96.10
70550;DHT22;58101;48.658;2.328;2023-07-31T12:41:08;21.10;97.00
70550;DHT22;58101;48.658;2.328;2023-07-31T12:43:35;21.20;96.20
70550;DHT22;58101;48.658;2.328;2023-07-31T12:46:01;21.20;96.20
70550;DHT22;58101;48.658;2.328;2023-07-31T12:48:27;21.20;95.20
70550;DHT22;58101;48.658;2.328;2023-07-31T12:50:53;21.20;95.90
70550;DHT22;58101;48.658;2.328;2023-07-31T12:53:18;21.30;95.40
70550;DHT22;58101;48.658;2.328;2023-07-31T12:55:44;21.30;94.90
70550;DHT22;58101;48.658;2.328;2023-07-31T12:58:10;21.30;95.60
70550;DHT22;58101;48.658;2.328;2023-07-31T13:00:35;21.40;96.00
70550;DHT22;58101;48.658;2.328;2023-07-31T13:03:02;21.30;96.30
70550;DHT22;58101;48.658;2.328;2023-07-31T13:05:28;21.30;96.00
70550;DHT22;58101;48.658;2.328;2023-07-31T13:07:54;21.30;96.20
70550;DHT22;58101;48.658;2.328;2023-07-31T13:10:20;21.40;96.40
70550;DHT22;58101;48.658;2.328;2023-07-31T13:12:46;21.40;96.00
70550;DHT22;58101;48.658;2.328;2023-07-31T13:15:11;21.50;95.00
70550;DHT22;58101;48.658;2.328;2023-07-31T13:17:37;21.50;95.20
70550;DHT22;58101;48.658;2.328;2023-07-31T13:20:03;21.50;94.50
70550;DHT22;58101;48.658;2.328;2023-07-31T13:22:29;21.60;95.60
70550;DHT22;58101;48.658;2.328;2023-07-31T13:24:55;21.90;94.70
70550;DHT22;58101;48.658;2.328;2023-07-31T13:27:20;22.20;93.40
70550;DHT22;58101;48.658;2.328;2023-07-31T13:29:47;22.40;92.40
70550;DHT22;58101;48.658;2.328;2023-07-31T13:32:13;22.60;91.70
70550;DHT22;58101;48.658;2.328;2023-07-31T13:34:38;22.60;90.90
70550;DHT22;58101;48.658;2.328;2023-07-31T13:37:04;22.60;90.40
70550;DHT22;58101;48.658;2.328;2023-07-31T13:39:31;22.60;90.80
70550;DHT22;58101;48.658;2.328;2023-07-31T13:41:58;22.50;89.60
70550;DHT22;58101;48.658;2.328;2023-07-31T13:44:24;22.50;90.60
70550;DHT22;58101;48.658;2.328;2023-07-31T13:46:49;22.50;88.40
70550;DHT22;58101;48.658;2.328;2023-07-31T13:49:15;22.40;88.20
70550;DHT22;58101;48.658;2.328;2023-07-31T13:51:40;22.50;88.80
70550;DHT22;58101;48.658;2.328;2023-07-31T13:54:06;22.50;90.30
70550;DHT22;58101;48.658;2.328;2023-07-31T13:56:35;22.70;89.70
70550;DHT22;58101;48.658;2.328;2023-07-31T13:59:00;22.80;88.40
70550;DHT22;58101;48.658;2.328;2023-07-31T14:01:26;23.00;87.80
70550;DHT22;58101;48.658;2.328;2023-07-31T14:03:52;23.10;85.70
70550;DHT22;58101;48.658;2.328;2023-07-31T14:06:19;23.00;84.90
70550;DHT22;58101;48.658;2.328;2023-07-31T14:08:44;22.70;86.30
70550;DHT22;58101;48.658;2.328;2023-07-31T14:11:10;22.50;87.50
70550;DHT22;58101;48.658;2.328;2023-07-31T14:13:35;22.50;88.80
70550;DHT22;58101;48.658;2.328;2023-07-31T14:16:01;22.40;90.40
70550;DHT22;58101;48.658;2.328;2023-07-31T14:18:26;22.40;88.80
70550;DHT22;58101;48.658;2.328;2023-07-31T14:20:52;22.20;90.20
70550;DHT22;58101;48.658;2.328;2023-07-31T14:23:18;22.20;90.60
70550;DHT22;58101;48.658;2.328;2023-07-31T14:25:45;22.20;90.80
70550;DHT22;58101;48.658;2.328;2023-07-31T14:28:11;22.20;90.60
70550;DHT22;58101;48.658;2.328;2023-07-31T14:30:36;22.30;90.90
70550;DHT22;58101;48.658;2.328;2023-07-31T14:33:02;22.40;90.30
70550;DHT22;58101;48.658;2.328;2023-07-31T14:35:28;22.40;88.80
70550;DHT22;58101;48.658;2.328;2023-07-31T14:37:54;22.50;89.10
70550;DHT22;58101;48.658;2.328;2023-07-31T14:40:20;22.50;87.50
70550;DHT22;58101;48.658;2.328;2023-07-31T14:42:45;22.40;90.10
70550;DHT22;58101;48.658;2.328;2023-07-31T14:45:11;22.40;93.40
70550;DHT22;58101;48.658;2.328;2023-07-31T14:47:37;22.40;95.20
70550;DHT22;58101;48.658;2.328;2023-07-31T14:50:03;22.30;93.30
70550;DHT22;58101;48.658;2.328;2023-07-31T14:52:29;22.30;92.00
70550;DHT22;58101;48.658;2.328;2023-07-31T14:54:55;22.40;91.50
70550;DHT22;58101;48.658;2.328;2023-07-31T14:57:20;22.50;90.50
70550;DHT22;58101;48.658;2.328;2023-07-31T14:59:46;22.70;90.40
70550;DHT22;58101;48.658;2.328;2023-07-31T15:02:12;22.70;90.00
70550;DHT22;58101;48.658;2.328;2023-07-31T15:04:38;22.80;87.60
70550;DHT22;58101;48.658;2.328;2023-07-31T15:07:04;22.80;85.70
70550;DHT22;58101;48.658;2.328;2023-07-31T15:09:30;22.80;86.60
70550;DHT22;58101;48.658;2.328;2023-07-31T15:11:56;22.90;85.30
70550;DHT22;58101;48.658;2.328;2023-07-31T15:14:22;22.80;86.70
70550;DHT22;58101;48.658;2.328;2023-07-31T15:16:47;22.70;87.10
70550;DHT22;58101;48.658;2.328;2023-07-31T15:19:14;22.70;86.40
70550;DHT22;58101;48.658;2.328;2023-07-31T15:21:40;22.60;88.10
70550;DHT22;58101;48.658;2.328;2023-07-31T15:24:05;22.60;89.30
70550;DHT22;58101;48.658;2.328;2023-07-31T15:26:31;22.50;89.20
70550;DHT22;58101;48.658;2.328;2023-07-31T15:29:02;22.40;90.70
70550;DHT22;58101;48.658;2.328;2023-07-31T15:31:31;22.30;94.20
70550;DHT22;58101;48.658;2.328;2023-07-31T15:33:56;22.10;99.90
70550;DHT22;58101;48.658;2.328;2023-07-31T15:36:22;21.90;99.90
70550;DHT22;58101;48.658;2.328;2023-07-31T15:38:48;21.70;99.90
70550;DHT22;58101;48.658;2.328;2023-07-31T15:41:16;21.50;99.90
70550;DHT22;58101;48.658;2.328;2023-07-31T15:43:42;21.20;99.90
70550;DHT22;58101;48.658;2.328;2023-07-31T15:46:08;21.10;99.90